createdAt,value
2019-03-06T00:00:49.499Z,101633.00
2019-03-06T00:02:26.476Z,101651.00
2019-03-06T00:04:01.863Z,101652.00
2019-03-06T00:05:37.230Z,101644.00
2019-03-06T00:07:12.598Z,101646.00
2019-03-06T00:08:47.954Z,101644.00
2019-03-06T00:10:32.179Z,101643.00
2019-03-06T00:12:07.557Z,101649.00
2019-03-06T00:13:42.914Z,101653.00
2019-03-06T00:15:18.287Z,101647.00
2019-03-06T00:16:53.673Z,101654.00
2019-03-06T00:18:29.039Z,101653.00
2019-03-06T00:20:06.151Z,101650.00
2019-03-06T00:21:41.600Z,101649.00
2019-03-06T00:23:16.967Z,101651.00
2019-03-06T00:24:52.324Z,101662.00
2019-03-06T00:26:27.685Z,101655.00
2019-03-06T00:28:03.084Z,101653.00
2019-03-06T00:29:38.518Z,101653.00
2019-03-06T00:31:13.887Z,101657.00
2019-03-06T00:32:49.262Z,101661.00
2019-03-06T00:34:24.628Z,101654.00
2019-03-06T00:36:01.863Z,101666.00
2019-03-06T00:37:37.243Z,101670.00
2019-03-06T00:39:12.776Z,101666.00
2019-03-06T00:40:49.790Z,101655.00
2019-03-06T00:42:25.166Z,101656.00
2019-03-06T00:44:00.536Z,101654.00
2019-03-06T00:45:35.904Z,101648.00
2019-03-06T00:47:11.275Z,101649.00
2019-03-06T00:48:46.721Z,101665.00
2019-03-06T00:50:22.790Z,101661.00
2019-03-06T00:51:58.174Z,101658.00
2019-03-06T00:53:33.546Z,101663.00
2019-03-06T00:55:12.010Z,101661.00
2019-03-06T00:56:47.372Z,101655.00
2019-03-06T00:58:25.055Z,101657.00
2019-03-06T01:00:00.396Z,101660.00
2019-03-06T01:01:35.705Z,101659.00
2019-03-06T01:03:11.496Z,101663.00
2019-03-06T01:04:46.874Z,101655.00
2019-03-06T01:06:22.237Z,101643.00
2019-03-06T01:07:57.694Z,101655.00
2019-03-06T01:09:33.066Z,101653.00
2019-03-06T01:11:08.433Z,101661.00
2019-03-06T01:12:44.351Z,101658.00
2019-03-06T01:14:19.730Z,101651.00
2019-03-06T01:15:55.091Z,101657.00
2019-03-06T01:17:30.467Z,101656.00
2019-03-06T01:19:06.182Z,101662.00
2019-03-06T01:20:41.552Z,101650.00
2019-03-06T01:22:16.915Z,101646.00
2019-03-06T01:23:52.612Z,101660.00
2019-03-06T01:25:27.980Z,101656.00
2019-03-06T01:27:03.717Z,101654.00
2019-03-06T01:28:39.083Z,101655.00
2019-03-06T01:30:26.903Z,101653.00
2019-03-06T01:32:02.581Z,101654.00
2019-03-06T01:33:39.590Z,101653.00
2019-03-06T01:35:34.657Z,101654.00
2019-03-06T01:37:11.731Z,101650.00
2019-03-06T01:39:06.759Z,101654.00
2019-03-06T01:41:00.135Z,101654.00
2019-03-06T01:42:40.056Z,101655.00
2019-03-06T01:44:17.061Z,101658.00
2019-03-06T01:45:52.442Z,101660.00
2019-03-06T01:47:27.808Z,101655.00
2019-03-06T01:49:03.174Z,101657.00
2019-03-06T01:50:38.561Z,101647.00
2019-03-06T01:52:14.894Z,101655.00
2019-03-06T01:53:50.265Z,101659.00
2019-03-06T01:55:25.649Z,101651.00
2019-03-06T01:57:01.019Z,101655.00
2019-03-06T01:58:36.660Z,101645.00
2019-03-06T02:00:16.608Z,101662.00
2019-03-06T02:01:51.979Z,101662.00
2019-03-06T02:03:27.356Z,101664.00
2019-03-06T02:05:02.729Z,101663.00
2019-03-06T02:06:38.225Z,101673.00
2019-03-06T02:08:16.671Z,101672.00
2019-03-06T02:09:52.062Z,101672.00
2019-03-06T02:11:27.419Z,101670.00
2019-03-06T02:13:02.848Z,101662.00
2019-03-06T02:14:38.466Z,101672.00
2019-03-06T02:16:14.810Z,101682.00
2019-03-06T02:17:50.348Z,101673.00
2019-03-06T02:19:25.704Z,101675.00
2019-03-06T02:21:01.077Z,101683.00
2019-03-06T02:22:36.443Z,101677.00
2019-03-06T02:24:11.811Z,101677.00
2019-03-06T02:25:47.471Z,101677.00
2019-03-06T02:27:23.094Z,101677.00
2019-03-06T02:28:58.760Z,101682.00
2019-03-06T02:30:34.141Z,101683.00
2019-03-06T02:32:09.510Z,101681.00
2019-03-06T02:33:45.183Z,101683.00
2019-03-06T02:35:20.920Z,101685.00
2019-03-06T02:36:56.280Z,101686.00
2019-03-06T02:38:31.688Z,101685.00
2019-03-06T02:40:09.859Z,101682.00
2019-03-06T02:41:45.222Z,101685.00
2019-03-06T02:43:20.583Z,101674.00
2019-03-06T02:44:55.964Z,101684.00
2019-03-06T02:46:31.331Z,101684.00
2019-03-06T02:48:07.812Z,101684.00
2019-03-06T02:49:44.118Z,101685.00
2019-03-06T02:51:19.559Z,101677.00
2019-03-06T02:52:55.264Z,101680.00
2019-03-06T02:54:30.881Z,101678.00
2019-03-06T02:56:06.529Z,101676.00
2019-03-06T02:57:43.786Z,101680.00
2019-03-06T02:59:20.802Z,101683.00
2019-03-06T03:01:10.962Z,101678.00
2019-03-06T03:02:47.973Z,101680.00
2019-03-06T03:04:25.004Z,101682.00
2019-03-06T03:06:07.846Z,101689.00
2019-03-06T03:07:43.252Z,101679.00
2019-03-06T03:09:20.293Z,101682.00
2019-03-06T03:10:55.674Z,101693.00
2019-03-06T03:12:31.034Z,101681.00
2019-03-06T03:14:06.650Z,101691.00
2019-03-06T03:15:42.032Z,101687.00
2019-03-06T03:17:17.399Z,101692.00
2019-03-06T03:18:53.038Z,101684.00
2019-03-06T03:20:28.403Z,101687.00
2019-03-06T03:22:03.775Z,101681.00
2019-03-06T03:23:39.128Z,101691.00
2019-03-06T03:25:14.492Z,101690.00
2019-03-06T03:26:50.143Z,101695.00
2019-03-06T03:28:25.507Z,101691.00
2019-03-06T03:30:00.946Z,101682.00
2019-03-06T03:31:36.322Z,101683.00
2019-03-06T03:33:11.689Z,101686.00
2019-03-06T03:34:47.328Z,101673.00
2019-03-06T03:36:22.709Z,101685.00
2019-03-06T03:37:58.064Z,101682.00
2019-03-06T03:39:33.425Z,101683.00
2019-03-06T03:41:08.826Z,101692.00
2019-03-06T03:42:44.725Z,101682.00
2019-03-06T03:44:20.068Z,101689.00
2019-03-06T03:45:56.423Z,101685.00
2019-03-06T03:47:31.794Z,101689.00
2019-03-06T03:49:07.408Z,101693.00
2019-03-06T03:50:42.773Z,101696.00
2019-03-06T03:52:18.442Z,101689.00
2019-03-06T03:53:53.812Z,101689.00
2019-03-06T03:55:29.190Z,101702.00
2019-03-06T03:57:04.572Z,101698.00
2019-03-06T03:58:39.926Z,101695.00
2019-03-06T04:00:19.220Z,101706.00
2019-03-06T04:01:54.594Z,101699.00
2019-03-06T04:03:30.611Z,101706.00
2019-03-06T04:05:09.189Z,101706.00
2019-03-06T04:06:44.629Z,101705.00
2019-03-06T04:08:19.988Z,101709.00
2019-03-06T04:09:55.637Z,101715.00
2019-03-06T04:11:31.001Z,101716.00
2019-03-06T04:13:06.375Z,101702.00
2019-03-06T04:14:42.234Z,101703.00
2019-03-06T04:16:17.598Z,101708.00
2019-03-06T04:17:53.152Z,101703.00
2019-03-06T04:19:28.515Z,101699.00
2019-03-06T04:21:03.877Z,101701.00
2019-03-06T04:22:40.325Z,101689.00
2019-03-06T04:24:15.687Z,101692.00
2019-03-06T04:25:51.228Z,101693.00
2019-03-06T04:27:26.596Z,101699.00
2019-03-06T04:29:02.041Z,101702.00
2019-03-06T04:30:38.379Z,101692.00
2019-03-06T04:32:14.109Z,101703.00
2019-03-06T04:33:49.464Z,101694.00
2019-03-06T04:35:24.826Z,101697.00
2019-03-06T04:37:00.230Z,101689.00
2019-03-06T04:38:35.587Z,101690.00
2019-03-06T04:40:14.135Z,101697.00
2019-03-06T04:41:49.491Z,101682.00
2019-03-06T04:43:24.863Z,101691.00
2019-03-06T04:45:00.606Z,101681.00
2019-03-06T04:46:35.974Z,101678.00
2019-03-06T04:48:11.345Z,101674.00
2019-03-06T04:49:52.556Z,101689.00
2019-03-06T04:51:23.781Z,101678.00
2019-03-06T04:53:00.294Z,101675.00
2019-03-06T04:54:35.662Z,101691.00
2019-03-06T04:56:11.029Z,101671.00
2019-03-06T04:57:46.406Z,101672.00
2019-03-06T04:59:21.766Z,101673.00
2019-03-06T05:00:58.113Z,101661.00
2019-03-06T05:02:33.486Z,101676.00
2019-03-06T05:04:09.815Z,101669.00
2019-03-06T05:05:45.189Z,101675.00
2019-03-06T05:07:20.733Z,101679.00
2019-03-06T05:08:56.426Z,101671.00
2019-03-06T05:10:31.793Z,101674.00
2019-03-06T05:12:07.332Z,101678.00
2019-03-06T05:13:42.713Z,101665.00
2019-03-06T05:15:19.080Z,101666.00
2019-03-06T05:17:02.015Z,101670.00
2019-03-06T05:18:40.513Z,101669.00
2019-03-06T05:20:16.202Z,101664.00
2019-03-06T05:21:51.815Z,101678.00
2019-03-06T05:23:27.474Z,101679.00
2019-03-06T05:25:02.841Z,101689.00
2019-03-06T05:26:38.208Z,101692.00
2019-03-06T05:28:13.587Z,101700.00
2019-03-06T05:29:48.936Z,101694.00
2019-03-06T05:31:24.481Z,101689.00
2019-03-06T05:33:09.982Z,101696.00
2019-03-06T05:34:45.420Z,101703.00
2019-03-06T05:36:43.557Z,101706.00
2019-03-06T05:38:54.452Z,101714.00
2019-03-06T05:40:29.816Z,101706.00
2019-03-06T05:42:05.186Z,101706.00
2019-03-06T05:43:40.555Z,101699.00
2019-03-06T05:45:15.968Z,101686.00
2019-03-06T05:46:51.282Z,101692.00
2019-03-06T05:48:26.652Z,101692.00
2019-03-06T05:50:02.023Z,101693.00
2019-03-06T05:51:37.666Z,101690.00
2019-03-06T05:53:13.301Z,101693.00
2019-03-06T05:54:48.650Z,101686.00
2019-03-06T05:56:24.015Z,101699.00
2019-03-06T05:57:59.369Z,101700.00
2019-03-06T05:59:35.813Z,101692.00
2019-03-06T06:01:11.168Z,101696.00
2019-03-06T06:02:46.598Z,101701.00
2019-03-06T06:04:21.969Z,101698.00
2019-03-06T06:05:57.338Z,101695.00
2019-03-06T06:07:32.698Z,101689.00
2019-03-06T06:09:08.514Z,101683.00
2019-03-06T06:10:43.875Z,101679.00
2019-03-06T06:12:19.239Z,101672.00
2019-03-06T06:13:54.622Z,101674.00
2019-03-06T06:15:29.976Z,101657.00
2019-03-06T06:17:05.416Z,101672.00
2019-03-06T06:18:41.585Z,101671.00
2019-03-06T06:20:17.086Z,101657.00
2019-03-06T06:21:54.091Z,101665.00
2019-03-06T06:23:49.113Z,101664.00
2019-03-06T06:25:24.483Z,101659.00
2019-03-06T06:26:59.840Z,101663.00
2019-03-06T06:28:35.214Z,101662.00
2019-03-06T06:30:14.143Z,101663.00
2019-03-06T06:31:49.511Z,101654.00
2019-03-06T06:33:24.952Z,101659.00
2019-03-06T06:35:00.407Z,101657.00
2019-03-06T06:36:35.765Z,101657.00
2019-03-06T06:38:11.778Z,101665.00
2019-03-06T06:39:47.401Z,101668.00
2019-03-06T06:41:22.772Z,101664.00
2019-03-06T06:42:58.127Z,101663.00
2019-03-06T06:44:33.497Z,101666.00
2019-03-06T06:46:08.866Z,101659.00
2019-03-06T06:48:14.604Z,101653.00
2019-03-06T06:49:50.933Z,101658.00
2019-03-06T06:51:59.999Z,101654.00
2019-03-06T06:53:48.648Z,101657.00
2019-03-06T06:55:31.355Z,101649.00
2019-03-06T06:57:40.237Z,101660.00
2019-03-06T06:59:34.637Z,101653.00
2019-03-06T07:01:27.817Z,101653.00
2019-03-06T07:03:27.415Z,101660.00
2019-03-06T07:05:15.969Z,101660.00
2019-03-06T07:06:52.972Z,101659.00
2019-03-06T07:08:33.984Z,101659.00
2019-03-06T07:10:19.935Z,101660.00
2019-03-06T07:11:56.942Z,101664.00
2019-03-06T07:13:49.086Z,101671.00
2019-03-06T07:15:35.029Z,101664.00
2019-03-06T07:17:15.073Z,101664.00
2019-03-06T07:18:52.076Z,101660.00
2019-03-06T07:20:29.093Z,101658.00
2019-03-06T07:22:06.166Z,101657.00
2019-03-06T07:23:46.091Z,101658.00
2019-03-06T07:25:35.150Z,101665.00
2019-03-06T07:27:12.165Z,101656.00
2019-03-06T07:28:49.183Z,101658.00
2019-03-06T07:30:32.151Z,101652.00
2019-03-06T07:32:24.122Z,101658.00
2019-03-06T07:34:06.838Z,101654.00
2019-03-06T07:35:55.878Z,101655.00
2019-03-06T07:37:38.726Z,101666.00
2019-03-06T07:39:21.206Z,101659.00
2019-03-06T07:41:16.881Z,101663.00
2019-03-06T07:42:56.850Z,101668.00
2019-03-06T07:44:49.890Z,101668.00
2019-03-06T07:46:35.728Z,101661.00
2019-03-06T07:48:12.754Z,101662.00
2019-03-06T07:50:06.441Z,101649.00
2019-03-06T07:51:52.074Z,101657.00
2019-03-06T07:54:00.078Z,101657.00
2019-03-06T07:55:37.102Z,101652.00
2019-03-06T07:57:15.078Z,101656.00
2019-03-06T07:58:56.143Z,101649.00
2019-03-06T08:00:31.525Z,101656.00
2019-03-06T08:02:54.763Z,101647.00
2019-03-06T08:04:30.145Z,101652.00
2019-03-06T08:06:05.615Z,101653.00
2019-03-06T08:07:41.012Z,101647.00
2019-03-06T08:09:19.798Z,101639.00
2019-03-06T08:10:55.368Z,101649.00
2019-03-06T08:12:34.925Z,101650.00
2019-03-06T08:14:22.216Z,101653.00
2019-03-06T08:16:02.636Z,101650.00
2019-03-06T08:17:42.489Z,101658.00
2019-03-06T08:19:35.990Z,101655.00
2019-03-06T08:21:21.835Z,101664.00
2019-03-06T08:23:01.490Z,101666.00
2019-03-06T08:24:38.508Z,101655.00
2019-03-06T08:26:13.897Z,101661.00
2019-03-06T08:27:49.278Z,101670.00
2019-03-06T08:29:24.657Z,101662.00
2019-03-06T08:31:13.762Z,101668.00
2019-03-06T08:32:49.139Z,101665.00
2019-03-06T08:34:24.538Z,101658.00
2019-03-06T08:36:00.237Z,101661.00
2019-03-06T08:37:35.619Z,101656.00
2019-03-06T08:39:21.902Z,101667.00
2019-03-06T08:41:04.559Z,101663.00
2019-03-06T08:42:34.618Z,101651.00
2019-03-06T08:44:09.992Z,101662.00
2019-03-06T08:46:03.267Z,101649.00
2019-03-06T08:47:40.291Z,101658.00
2019-03-06T08:49:36.890Z,101645.00
2019-03-06T08:51:14.431Z,101641.00
2019-03-06T08:52:55.243Z,101637.00
2019-03-06T08:54:35.794Z,101635.00
2019-03-06T08:56:22.198Z,101635.00
2019-03-06T08:57:59.293Z,101636.00
2019-03-06T08:59:45.295Z,101623.00
2019-03-06T09:01:45.956Z,101626.00
2019-03-06T09:03:25.867Z,101619.00
2019-03-06T09:05:05.339Z,101620.00
2019-03-06T09:06:49.756Z,101628.00
2019-03-06T09:08:36.365Z,101620.00
2019-03-06T09:10:22.732Z,101619.00
2019-03-06T09:12:12.016Z,101603.00
2019-03-06T09:14:04.272Z,101601.00
2019-03-06T09:15:43.718Z,101617.00
2019-03-06T09:17:37.324Z,101619.00
2019-03-06T09:19:16.974Z,101609.00
2019-03-06T09:21:03.204Z,101615.00
2019-03-06T09:22:42.123Z,101608.00
2019-03-06T09:24:35.398Z,101604.00
2019-03-06T09:26:15.176Z,101612.00
2019-03-06T09:27:58.221Z,101599.00
2019-03-06T09:29:35.608Z,101603.00
2019-03-06T09:31:28.847Z,101592.00
2019-03-06T09:33:11.506Z,101593.00
2019-03-06T09:35:00.582Z,101593.00
2019-03-06T09:36:53.579Z,101589.00
2019-03-06T09:38:33.252Z,101581.00
2019-03-06T09:40:14.754Z,101581.00
2019-03-06T09:41:55.676Z,101568.00
2019-03-06T09:43:42.088Z,101570.00
2019-03-06T09:45:19.096Z,101569.00
2019-03-06T09:47:12.372Z,101565.00
2019-03-06T09:49:11.115Z,101569.00
2019-03-06T09:50:48.419Z,101568.00
2019-03-06T09:52:37.424Z,101567.00
2019-03-06T09:54:14.450Z,101569.00
2019-03-06T09:56:03.348Z,101569.00
2019-03-06T09:57:43.068Z,101572.00
2019-03-06T09:59:20.262Z,101564.00
2019-03-06T10:00:57.274Z,101567.00
2019-03-06T10:02:34.303Z,101571.00
2019-03-06T10:04:20.346Z,101563.00
2019-03-06T10:05:59.296Z,101559.00
2019-03-06T10:07:52.183Z,101559.00
2019-03-06T10:09:29.280Z,101556.00
2019-03-06T10:11:06.362Z,101554.00
2019-03-06T10:12:49.550Z,101558.00
2019-03-06T10:14:26.575Z,101559.00
2019-03-06T10:16:03.601Z,101559.00
2019-03-06T10:17:46.607Z,101553.00
2019-03-06T10:19:26.561Z,101556.00
2019-03-06T10:21:01.976Z,101559.00
2019-03-06T10:22:37.349Z,101564.00
2019-03-06T10:24:12.724Z,101554.00
2019-03-06T10:25:48.101Z,101556.00
2019-03-06T10:27:23.492Z,101544.00
2019-03-06T10:28:58.874Z,101554.00
2019-03-06T10:30:34.449Z,101548.00
2019-03-06T10:32:09.842Z,101536.00
2019-03-06T10:33:46.293Z,101524.00
2019-03-06T10:35:22.697Z,101521.00
2019-03-06T10:36:58.269Z,101528.00
2019-03-06T10:38:33.653Z,101517.00
2019-03-06T10:40:18.555Z,101521.00
2019-03-06T10:41:55.013Z,101511.00
2019-03-06T10:43:31.475Z,101522.00
2019-03-06T10:45:09.260Z,101522.00
2019-03-06T10:46:44.645Z,101518.00
2019-03-06T10:48:20.031Z,101526.00
2019-03-06T10:49:55.405Z,101524.00
2019-03-06T10:51:31.252Z,101514.00
2019-03-06T10:53:06.727Z,101523.00
2019-03-06T10:54:44.998Z,101514.00
2019-03-06T10:56:19.202Z,101507.00
2019-03-06T10:57:54.585Z,101501.00
2019-03-06T10:59:31.109Z,101512.00
2019-03-06T11:01:07.100Z,101514.00
2019-03-06T11:02:42.490Z,101530.00
2019-03-06T11:04:22.168Z,101518.00
2019-03-06T11:05:57.542Z,101509.00
2019-03-06T11:07:32.920Z,101509.00
2019-03-06T11:09:10.916Z,101508.00
2019-03-06T11:10:46.285Z,101502.00
2019-03-06T11:12:21.683Z,101502.00
2019-03-06T11:14:05.795Z,101506.00
2019-03-06T11:15:35.249Z,101497.00
2019-03-06T11:17:10.800Z,101502.00
2019-03-06T11:18:47.521Z,101494.00
2019-03-06T11:20:32.871Z,101494.00
2019-03-06T11:22:08.876Z,101494.00
2019-03-06T11:23:44.254Z,101490.00
2019-03-06T11:25:21.758Z,101486.00
2019-03-06T11:26:57.454Z,101479.00
2019-03-06T11:28:32.916Z,101478.00
2019-03-06T11:30:27.729Z,101481.00
2019-03-06T11:32:03.360Z,101469.00
2019-03-06T11:33:39.040Z,101473.00
2019-03-06T11:35:19.295Z,101463.00
2019-03-06T11:36:55.668Z,101470.00
2019-03-06T11:38:31.430Z,101470.00
2019-03-06T11:40:11.412Z,101470.00
2019-03-06T11:41:47.117Z,101467.00
2019-03-06T11:43:22.858Z,101464.00
2019-03-06T11:44:58.231Z,101463.00
2019-03-06T11:46:33.616Z,101459.00
2019-03-06T11:48:09.513Z,101471.00
2019-03-06T11:49:44.931Z,101456.00
2019-03-06T11:51:20.276Z,101459.00
2019-03-06T11:52:56.434Z,101455.00
2019-03-06T11:54:31.881Z,101458.00
2019-03-06T11:56:08.171Z,101448.00
2019-03-06T11:57:44.703Z,101450.00
2019-03-06T11:59:20.540Z,101450.00
2019-03-06T12:00:57.313Z,101448.00
2019-03-06T12:02:32.909Z,101447.00
2019-03-06T12:04:08.249Z,101440.00
2019-03-06T12:05:43.932Z,101441.00
2019-03-06T12:07:19.311Z,101457.00
2019-03-06T12:08:54.698Z,101450.00
2019-03-06T12:10:31.405Z,101437.00
2019-03-06T12:12:07.281Z,101434.00
2019-03-06T12:13:42.705Z,101437.00
2019-03-06T12:15:18.327Z,101433.00
2019-03-06T12:16:53.704Z,101433.00
2019-03-06T12:18:29.095Z,101442.00
2019-03-06T12:20:08.379Z,101440.00
2019-03-06T12:21:43.928Z,101436.00
2019-03-06T12:23:19.391Z,101426.00
2019-03-06T12:24:54.758Z,101417.00
2019-03-06T12:26:30.207Z,101425.00
2019-03-06T12:28:08.600Z,101423.00
2019-03-06T12:29:43.982Z,101425.00
2019-03-06T12:31:19.532Z,101419.00
2019-03-06T12:32:55.377Z,101419.00
2019-03-06T12:34:30.756Z,101418.00
2019-03-06T12:36:06.440Z,101407.00
2019-03-06T12:37:46.933Z,101400.00
2019-03-06T12:39:18.929Z,101400.00
2019-03-06T12:40:54.312Z,101397.00
2019-03-06T12:42:29.682Z,101389.00
2019-03-06T12:44:10.452Z,101386.00
2019-03-06T12:46:04.271Z,101382.00
2019-03-06T12:47:39.649Z,101380.00
2019-03-06T12:49:15.140Z,101375.00
2019-03-06T12:50:55.163Z,101368.00
2019-03-06T12:52:28.717Z,101359.00
2019-03-06T12:54:06.128Z,101345.00
2019-03-06T12:55:41.513Z,101338.00
2019-03-06T12:57:16.881Z,101325.00
2019-03-06T12:58:52.265Z,101333.00
2019-03-06T13:00:27.909Z,101331.00
2019-03-06T13:02:03.467Z,101329.00
2019-03-06T13:03:39.822Z,101329.00
2019-03-06T13:05:15.272Z,101310.00
2019-03-06T13:06:50.659Z,101310.00
2019-03-06T13:08:26.119Z,101297.00
2019-03-06T13:10:01.568Z,101293.00
2019-03-06T13:11:36.944Z,101294.00
2019-03-06T13:13:12.413Z,101288.00
2019-03-06T13:14:47.908Z,101283.00
2019-03-06T13:16:23.676Z,101287.00
2019-03-06T13:17:59.987Z,101286.00
2019-03-06T13:19:35.375Z,101280.00
2019-03-06T13:21:11.310Z,101278.00
2019-03-06T13:22:46.689Z,101276.00
2019-03-06T13:24:22.080Z,101267.00
2019-03-06T13:25:57.463Z,101264.00
2019-03-06T13:27:32.879Z,101259.00
2019-03-06T13:29:09.315Z,101243.00
2019-03-06T13:30:44.688Z,101254.00
2019-03-06T13:32:21.704Z,101257.00
2019-03-06T13:34:01.393Z,101259.00
2019-03-06T13:35:38.666Z,101251.00
2019-03-06T13:37:14.042Z,101249.00
2019-03-06T13:38:54.978Z,101248.00
2019-03-06T13:40:26.793Z,101242.00
2019-03-06T13:42:02.181Z,101251.00
2019-03-06T13:43:37.564Z,101240.00
2019-03-06T13:45:15.486Z,101239.00
2019-03-06T13:46:50.874Z,101235.00
2019-03-06T13:48:26.250Z,101243.00
2019-03-06T13:50:01.742Z,101231.00
2019-03-06T13:51:38.184Z,101233.00
2019-03-06T13:53:20.097Z,101234.00
2019-03-06T13:54:50.655Z,101232.00
2019-03-06T13:56:26.040Z,101226.00
2019-03-06T13:58:02.549Z,101217.00
2019-03-06T13:59:38.024Z,101212.00
2019-03-06T14:01:13.549Z,101202.00
2019-03-06T14:02:51.610Z,101196.00
2019-03-06T14:04:26.999Z,101185.00
2019-03-06T14:06:03.353Z,101183.00
2019-03-06T14:07:38.983Z,101173.00
2019-03-06T14:09:15.073Z,101175.00
2019-03-06T14:10:50.796Z,101168.00
2019-03-06T14:12:26.495Z,101160.00
2019-03-06T14:14:03.079Z,101154.00
2019-03-06T14:15:38.458Z,101155.00
2019-03-06T14:17:13.854Z,101158.00
2019-03-06T14:18:49.521Z,101154.00
2019-03-06T14:20:25.172Z,101151.00
2019-03-06T14:22:00.865Z,101151.00
2019-03-06T14:23:37.630Z,101144.00
2019-03-06T14:25:15.864Z,101150.00
2019-03-06T14:26:51.411Z,101149.00
2019-03-06T14:28:26.804Z,101151.00
2019-03-06T14:30:02.197Z,101150.00
2019-03-06T14:31:37.577Z,101147.00
2019-03-06T14:33:12.955Z,101133.00
2019-03-06T14:34:48.342Z,101131.00
2019-03-06T14:36:23.720Z,101126.00
2019-03-06T14:37:59.162Z,101130.00
2019-03-06T14:39:34.553Z,101120.00
2019-03-06T14:41:10.306Z,101131.00
2019-03-06T14:42:45.681Z,101119.00
2019-03-06T14:44:21.076Z,101126.00
2019-03-06T14:45:57.415Z,101121.00
2019-03-06T14:47:32.869Z,101124.00
2019-03-06T14:49:08.337Z,101122.00
2019-03-06T14:50:43.703Z,101123.00
2019-03-06T14:52:19.084Z,101119.00
2019-03-06T14:53:54.465Z,101118.00
2019-03-06T14:55:30.015Z,101106.00
2019-03-06T14:57:05.827Z,101117.00
2019-03-06T14:58:41.204Z,101106.00
2019-03-06T15:00:21.383Z,101113.00
2019-03-06T15:01:56.756Z,101117.00
2019-03-06T15:03:32.410Z,101100.00
2019-03-06T15:05:07.866Z,101108.00
2019-03-06T15:06:43.241Z,101090.00
2019-03-06T15:08:18.619Z,101101.00
2019-03-06T15:09:54.282Z,101096.00
2019-03-06T15:11:33.087Z,101094.00
2019-03-06T15:13:06.878Z,101091.00
2019-03-06T15:14:42.518Z,101081.00
2019-03-06T15:16:17.970Z,101084.00
2019-03-06T15:17:53.355Z,101078.00
2019-03-06T15:19:29.707Z,101082.00
2019-03-06T15:21:05.088Z,101072.00
2019-03-06T15:22:40.736Z,101059.00
2019-03-06T15:24:16.441Z,101066.00
2019-03-06T15:25:51.819Z,101057.00
2019-03-06T15:27:27.202Z,101046.00
2019-03-06T15:29:02.574Z,101047.00
2019-03-06T15:30:37.958Z,101028.00
2019-03-06T15:32:13.407Z,101036.00
2019-03-06T15:33:48.789Z,101030.00
2019-03-06T15:35:24.177Z,101048.00
2019-03-06T15:36:59.726Z,101036.00
2019-03-06T15:38:35.108Z,101033.00
2019-03-06T15:40:24.765Z,101028.00
2019-03-06T15:42:01.693Z,101034.00
2019-03-06T15:43:38.586Z,101025.00
2019-03-06T15:45:16.543Z,101018.00
2019-03-06T15:46:51.987Z,101019.00
2019-03-06T15:48:27.375Z,101013.00
2019-03-06T15:50:02.755Z,101006.00
2019-03-06T15:51:38.371Z,101013.00
2019-03-06T15:53:24.122Z,101006.00
2019-03-06T15:54:53.066Z,101002.00
2019-03-06T15:56:28.611Z,100997.00
2019-03-06T15:58:04.727Z,101000.00
2019-03-06T15:59:40.419Z,100996.00
2019-03-06T16:01:15.941Z,100996.00
2019-03-06T16:02:51.635Z,100980.00
2019-03-06T16:04:27.008Z,100997.00
2019-03-06T16:06:02.463Z,100982.00
2019-03-06T16:07:38.794Z,100978.00
2019-03-06T16:09:14.954Z,100990.00
2019-03-06T16:10:50.339Z,100980.00
2019-03-06T16:12:25.783Z,100972.00
2019-03-06T16:14:01.158Z,100970.00
2019-03-06T16:15:36.962Z,100974.00
2019-03-06T16:17:12.338Z,100967.00
2019-03-06T16:18:47.722Z,100961.00
2019-03-06T16:20:24.050Z,100961.00
2019-03-06T16:21:59.423Z,100954.00
2019-03-06T16:23:35.075Z,100945.00
2019-03-06T16:25:11.316Z,100946.00
2019-03-06T16:26:46.687Z,100944.00
2019-03-06T16:28:22.069Z,100951.00
2019-03-06T16:29:57.463Z,100942.00
2019-03-06T16:31:32.841Z,100930.00
2019-03-06T16:33:08.480Z,100934.00
2019-03-06T16:34:43.852Z,100933.00
2019-03-06T16:36:19.254Z,100925.00
2019-03-06T16:37:54.687Z,100923.00
2019-03-06T16:39:30.059Z,100932.00
2019-03-06T16:41:05.445Z,100920.00
2019-03-06T16:42:41.015Z,100918.00
2019-03-06T16:44:16.459Z,100921.00
2019-03-06T16:45:51.851Z,100920.00
2019-03-06T16:47:27.393Z,100924.00
2019-03-06T16:49:03.306Z,100919.00
2019-03-06T16:50:38.933Z,100919.00
2019-03-06T16:52:14.666Z,100921.00
2019-03-06T16:53:50.697Z,100919.00
2019-03-06T16:55:27.602Z,100912.00
2019-03-06T16:57:02.979Z,100906.00
2019-03-06T16:58:38.370Z,100912.00
2019-03-06T17:00:27.748Z,100903.00
2019-03-06T17:02:03.469Z,100898.00
2019-03-06T17:03:39.190Z,100897.00
2019-03-06T17:05:18.622Z,100902.00
2019-03-06T17:06:54.969Z,100900.00
2019-03-06T17:08:30.450Z,100888.00
2019-03-06T17:10:06.621Z,100888.00
2019-03-06T17:11:42.356Z,100885.00
2019-03-06T17:13:17.801Z,100883.00
2019-03-06T17:14:53.446Z,100881.00
2019-03-06T17:16:30.359Z,100878.00
2019-03-06T17:18:06.333Z,100887.00
2019-03-06T17:19:42.574Z,100891.00
2019-03-06T17:21:17.957Z,100874.00
2019-03-06T17:22:53.564Z,100873.00
2019-03-06T17:24:29.289Z,100863.00
2019-03-06T17:26:05.717Z,100873.00
2019-03-06T17:27:41.252Z,100867.00
2019-03-06T17:29:16.697Z,100880.00
2019-03-06T17:30:52.090Z,100875.00
2019-03-06T17:32:27.539Z,100880.00
2019-03-06T17:34:02.922Z,100875.00
2019-03-06T17:35:39.204Z,100875.00
2019-03-06T17:37:14.721Z,100870.00
2019-03-06T17:38:50.104Z,100866.00
2019-03-06T17:40:26.085Z,100876.00
2019-03-06T17:42:01.464Z,100873.00
2019-03-06T17:43:37.197Z,100875.00
2019-03-06T17:45:13.964Z,100868.00
2019-03-06T17:46:49.601Z,100875.00
2019-03-06T17:48:25.246Z,100871.00
2019-03-06T17:50:00.621Z,100879.00
2019-03-06T17:51:36.005Z,100860.00
2019-03-06T17:53:11.389Z,100860.00
2019-03-06T17:54:46.942Z,100864.00
2019-03-06T17:56:22.323Z,100850.00
2019-03-06T17:57:59.092Z,100847.00
2019-03-06T17:59:34.561Z,100839.00
2019-03-06T18:01:11.657Z,100845.00
2019-03-06T18:02:47.101Z,100836.00
2019-03-06T18:04:22.478Z,100829.00
2019-03-06T18:05:57.861Z,100832.00
2019-03-06T18:07:33.311Z,100824.00
2019-03-06T18:09:08.769Z,100823.00
2019-03-06T18:10:45.902Z,100827.00
2019-03-06T18:12:21.358Z,100814.00
2019-03-06T18:13:56.744Z,100820.00
2019-03-06T18:15:32.125Z,100819.00
2019-03-06T18:17:07.517Z,100813.00
2019-03-06T18:18:42.887Z,100813.00
2019-03-06T18:20:19.246Z,100808.00
2019-03-06T18:21:54.643Z,100810.00
2019-03-06T18:23:30.014Z,100800.00
2019-03-06T18:25:10.884Z,100797.00
2019-03-06T18:26:46.340Z,100796.00
2019-03-06T18:28:21.889Z,100790.00
2019-03-06T18:29:57.272Z,100797.00
2019-03-06T18:31:32.723Z,100784.00
2019-03-06T18:33:08.099Z,100789.00
2019-03-06T18:34:43.481Z,100785.00